createdAt,value
2023-02-17T00:00:54.840Z,402.60
2023-02-17T00:03:24.261Z,404.63
2023-02-17T00:05:53.657Z,394.37
2023-02-17T00:08:21.459Z,392.67
2023-02-17T00:10:56.776Z,395.30
2023-02-17T00:13:24.356Z,389.07
2023-02-17T00:15:52.023Z,398.23
2023-02-17T00:18:19.816Z,389.87
2023-02-17T00:20:47.442Z,385.10
2023-02-17T00:23:16.483Z,387.77
2023-02-17T00:25:44.411Z,385.67
2023-02-17T00:28:12.009Z,393.23
2023-02-17T00:30:40.036Z,383.37
2023-02-17T00:33:07.814Z,384.37
2023-02-17T00:35:35.396Z,391.80
2023-02-17T00:38:02.997Z,392.27
2023-02-17T00:40:31.927Z,388.30
2023-02-17T00:42:59.475Z,394.97
2023-02-17T00:45:27.035Z,392.27
2023-02-17T00:47:54.595Z,387.53
2023-02-17T00:50:22.225Z,390.70
2023-02-17T00:52:49.825Z,392.17
2023-02-17T00:55:17.568Z,382.57
2023-02-17T00:57:46.509Z,388.67
2023-02-17T01:00:15.285Z,390.47
2023-02-17T01:02:42.896Z,390.17
2023-02-17T01:05:10.526Z,386.87
2023-02-17T01:07:38.237Z,380.97
2023-02-17T01:10:06.813Z,387.70
2023-02-17T01:12:34.613Z,386.10
2023-02-17T01:15:03.642Z,385.00
2023-02-17T01:17:31.219Z,379.87
2023-02-17T01:19:59.453Z,379.97
2023-02-17T01:22:27.079Z,389.70
2023-02-17T01:24:54.713Z,381.60
2023-02-17T01:27:22.342Z,387.30
2023-02-17T01:29:49.971Z,386.03
2023-02-17T01:32:18.925Z,381.40
2023-02-17T01:34:46.500Z,400.13
2023-02-17T01:37:14.128Z,398.47
2023-02-17T01:39:41.733Z,392.37
2023-02-17T01:42:15.838Z,391.13
2023-02-17T01:45:29.059Z,397.50
2023-02-17T01:48:02.520Z,396.80
2023-02-17T01:50:34.169Z,389.67
2023-02-17T01:53:04.213Z,392.10
2023-02-17T01:55:33.943Z,395.63
2023-02-17T01:58:05.781Z,395.30
2023-02-17T02:00:34.900Z,397.47
2023-02-17T02:03:07.673Z,399.90
2023-02-17T02:05:37.545Z,402.57
2023-02-17T02:08:05.899Z,400.60
2023-02-17T02:10:33.534Z,410.03
2023-02-17T02:13:01.195Z,414.27
2023-02-17T02:15:35.895Z,413.90
2023-02-17T02:18:21.073Z,412.50
2023-02-17T02:21:21.613Z,418.93
2023-02-17T02:24:09.787Z,417.83
2023-02-17T02:27:25.823Z,423.10
2023-02-17T02:30:04.018Z,420.67
2023-02-17T02:32:50.084Z,423.47
2023-02-17T02:35:23.983Z,423.63
2023-02-17T02:37:57.343Z,421.07
2023-02-17T02:40:30.728Z,427.17
2023-02-17T02:43:01.720Z,424.40
2023-02-17T02:45:29.300Z,422.93
2023-02-17T02:47:59.335Z,423.67
2023-02-17T02:50:43.713Z,427.77
2023-02-17T02:53:37.740Z,432.53
2023-02-17T02:56:14.430Z,428.00
2023-02-17T02:58:49.363Z,437.83
2023-02-17T03:01:25.114Z,433.00
2023-02-17T03:04:05.065Z,438.57
2023-02-17T03:06:40.790Z,445.80
2023-02-17T03:09:12.785Z,440.33
2023-02-17T03:11:41.960Z,448.10
2023-02-17T03:14:11.397Z,443.13
2023-02-17T03:16:40.605Z,446.50
2023-02-17T03:19:11.488Z,435.60
2023-02-17T03:21:41.371Z,447.27
2023-02-17T03:24:09.749Z,448.87
2023-02-17T03:26:37.477Z,451.00
2023-02-17T03:29:05.291Z,445.23
2023-02-17T03:31:33.429Z,446.23
2023-02-17T03:34:01.499Z,449.87
2023-02-17T03:36:30.900Z,450.93
2023-02-17T03:38:58.997Z,445.47
2023-02-17T03:41:26.630Z,449.30
2023-02-17T03:43:54.339Z,445.63
2023-02-17T03:46:22.044Z,458.10
2023-02-17T03:48:49.777Z,448.13
2023-02-17T03:51:19.751Z,452.20
2023-02-17T03:53:49.042Z,442.30
2023-02-17T03:56:17.494Z,443.77
2023-02-17T03:58:45.722Z,447.57
2023-02-17T04:01:14.110Z,451.03
2023-02-17T04:03:42.251Z,439.60
2023-02-17T04:06:11.626Z,441.90
2023-02-17T04:08:39.986Z,434.03
2023-02-17T04:11:10.847Z,435.30
2023-02-17T04:13:38.853Z,449.93
2023-02-17T04:16:08.986Z,452.57
2023-02-17T04:18:37.353Z,438.47
2023-02-17T04:21:05.418Z,446.33
2023-02-17T04:23:33.941Z,442.10
2023-02-17T04:26:01.548Z,445.53
2023-02-17T04:28:30.590Z,436.93
2023-02-17T04:31:00.416Z,435.90
2023-02-17T04:33:28.161Z,431.60
2023-02-17T04:35:59.677Z,433.87
2023-02-17T04:38:28.312Z,426.30
2023-02-17T04:40:56.498Z,424.50
2023-02-17T04:43:24.666Z,426.47
2023-02-17T04:45:53.982Z,426.07
2023-02-17T04:48:22.244Z,437.63
2023-02-17T04:50:50.227Z,417.30
2023-02-17T04:53:18.239Z,435.70
2023-02-17T04:55:49.368Z,421.87
2023-02-17T04:58:17.202Z,429.40
2023-02-17T05:00:44.858Z,430.30
2023-02-17T05:03:13.831Z,435.27
2023-02-17T05:05:41.488Z,429.87
2023-02-17T05:08:09.133Z,429.30
2023-02-17T05:10:36.782Z,422.77
2023-02-17T05:13:04.405Z,425.80
2023-02-17T05:15:34.635Z,425.50
2023-02-17T05:18:02.570Z,422.13
2023-02-17T05:20:31.620Z,413.40
2023-02-17T05:22:59.214Z,428.27
2023-02-17T05:25:26.860Z,431.93
2023-02-17T05:27:54.489Z,423.97
2023-02-17T05:30:22.310Z,422.23
2023-02-17T05:32:49.944Z,424.20
2023-02-17T05:35:17.600Z,426.77
2023-02-17T05:37:46.647Z,422.77
2023-02-17T05:40:14.393Z,427.70
2023-02-17T05:42:42.523Z,435.80
2023-02-17T05:45:10.346Z,428.27
2023-02-17T05:47:37.960Z,436.57
2023-02-17T05:50:06.704Z,435.50
2023-02-17T05:52:34.269Z,433.57
2023-02-17T05:55:04.696Z,428.00
2023-02-17T05:57:32.333Z,430.70
2023-02-17T05:59:59.921Z,434.07
2023-02-17T06:02:27.569Z,430.30
2023-02-17T06:04:55.220Z,422.60
2023-02-17T06:07:22.848Z,429.40
2023-02-17T06:09:50.494Z,430.87
2023-02-17T06:12:19.461Z,426.50
2023-02-17T06:14:47.024Z,428.10
2023-02-17T06:17:14.653Z,429.67
2023-02-17T06:19:42.257Z,430.73
2023-02-17T06:22:09.856Z,429.87
2023-02-17T06:24:37.679Z,424.33
2023-02-17T06:27:05.338Z,445.63
2023-02-17T06:29:34.566Z,426.93
2023-02-17T06:32:02.342Z,411.07
2023-02-17T06:34:30.242Z,411.27
2023-02-17T06:36:57.943Z,403.43
2023-02-17T06:39:25.611Z,401.23
2023-02-17T06:41:53.197Z,407.10
2023-02-17T06:44:20.876Z,410.00
2023-02-17T06:46:49.779Z,409.83
2023-02-17T06:49:17.442Z,410.43
2023-02-17T06:51:44.999Z,413.90
2023-02-17T06:54:12.568Z,418.50
2023-02-17T06:56:40.575Z,409.37
2023-02-17T06:59:08.290Z,412.67
2023-02-17T07:01:35.945Z,412.10
2023-02-17T07:04:04.894Z,428.10
2023-02-17T07:06:32.872Z,428.27
2023-02-17T07:09:01.765Z,423.07
2023-02-17T07:11:31.353Z,419.40
2023-02-17T07:13:59.209Z,419.00
2023-02-17T07:16:27.340Z,418.23
2023-02-17T07:18:55.065Z,426.73
2023-02-17T07:21:24.250Z,421.93
2023-02-17T07:23:51.867Z,418.37
2023-02-17T07:26:19.486Z,423.03
2023-02-17T07:28:47.106Z,425.20
2023-02-17T07:31:16.918Z,434.20
2023-02-17T07:33:45.516Z,426.93
2023-02-17T07:36:15.094Z,429.13
2023-02-17T07:38:44.474Z,426.20
2023-02-17T07:41:14.378Z,436.23
2023-02-17T07:43:42.476Z,432.90
2023-02-17T07:46:11.482Z,434.97
2023-02-17T07:48:39.907Z,432.80
2023-02-17T07:51:08.944Z,446.33
2023-02-17T07:53:37.317Z,410.30
2023-02-17T07:56:08.187Z,386.60
2023-02-17T07:58:37.693Z,371.73
2023-02-17T08:01:07.192Z,370.83
2023-02-17T08:03:35.485Z,364.70
2023-02-17T08:06:03.511Z,372.27
2023-02-17T08:08:57.440Z,369.20
2023-02-17T08:11:45.148Z,364.23
2023-02-17T08:14:13.461Z,370.53
2023-02-17T08:16:41.104Z,361.87
2023-02-17T08:19:08.833Z,360.50
2023-02-17T08:21:36.562Z,355.90
2023-02-17T08:24:04.445Z,350.90
2023-02-17T08:26:33.420Z,349.20
2023-02-17T08:29:01.110Z,355.53
2023-02-17T08:31:30.594Z,355.90
2023-02-17T08:33:59.241Z,369.57
2023-02-17T08:36:26.905Z,363.37
2023-02-17T08:38:55.626Z,361.13
2023-02-17T08:41:26.350Z,355.27
2023-02-17T08:43:55.389Z,362.10
2023-02-17T08:46:23.219Z,357.53
2023-02-17T08:48:51.040Z,354.37
2023-02-17T08:51:23.444Z,357.40
2023-02-17T08:53:51.429Z,345.50
2023-02-17T08:56:19.053Z,356.90
2023-02-17T08:58:46.714Z,353.30
2023-02-17T09:01:18.388Z,354.20
2023-02-17T09:03:47.407Z,352.93
2023-02-17T09:06:15.760Z,364.40
2023-02-17T09:08:43.872Z,356.73
2023-02-17T09:11:12.607Z,350.50
2023-02-17T09:13:40.334Z,355.17
2023-02-17T09:16:08.986Z,357.47
2023-02-17T09:18:38.427Z,345.90
2023-02-17T09:21:07.714Z,345.77
2023-02-17T09:23:35.913Z,342.83
2023-02-17T09:26:05.888Z,360.83
2023-02-17T09:28:34.597Z,364.37
2023-02-17T09:31:09.606Z,370.13
2023-02-17T09:33:38.592Z,362.73
2023-02-17T09:36:07.873Z,357.63
2023-02-17T09:38:35.750Z,366.07
2023-02-17T09:41:15.342Z,372.97
2023-02-17T09:43:43.758Z,375.27
2023-02-17T09:46:15.441Z,379.53
2023-02-17T09:48:45.499Z,374.70
2023-02-17T09:51:20.832Z,373.33
2023-02-17T09:53:56.864Z,378.70
2023-02-17T09:56:33.564Z,381.87
2023-02-17T09:59:07.150Z,391.50
2023-02-17T10:01:36.531Z,384.10
2023-02-17T10:04:11.419Z,378.50
2023-02-17T10:06:42.305Z,381.00
2023-02-17T10:09:16.413Z,378.40
2023-02-17T10:11:49.109Z,378.53
2023-02-17T10:14:22.562Z,374.70
2023-02-17T10:16:54.625Z,369.27
2023-02-17T10:19:29.182Z,369.63
2023-02-17T10:22:03.123Z,364.77
2023-02-17T10:24:30.711Z,370.10
2023-02-17T10:27:09.967Z,368.93
2023-02-17T10:29:50.284Z,365.17
2023-02-17T10:32:23.517Z,373.73
2023-02-17T10:35:04.438Z,370.03
2023-02-17T10:37:42.895Z,368.87
2023-02-17T10:40:15.650Z,371.50
2023-02-17T10:42:43.384Z,369.10
2023-02-17T10:45:19.829Z,361.43
2023-02-17T10:47:48.573Z,376.70
2023-02-17T10:50:23.269Z,376.30
2023-02-17T10:52:52.304Z,373.53
2023-02-17T10:55:26.727Z,387.27
2023-02-17T10:57:58.926Z,367.90
2023-02-17T11:00:27.100Z,375.40
2023-02-17T11:02:55.044Z,373.13
2023-02-17T11:05:27.396Z,365.87
2023-02-17T11:08:01.405Z,373.43
2023-02-17T11:10:31.146Z,366.90
2023-02-17T11:12:59.285Z,359.87
2023-02-17T11:15:30.162Z,364.90
2023-02-17T11:18:01.333Z,360.10
2023-02-17T11:20:37.765Z,353.43
2023-02-17T11:23:23.188Z,356.93
2023-02-17T11:26:02.780Z,354.70
2023-02-17T11:28:31.302Z,347.97
2023-02-17T11:31:02.566Z,344.13
2023-02-17T11:33:34.242Z,351.50
2023-02-17T11:36:04.128Z,340.97
2023-02-17T11:38:41.976Z,345.47
2023-02-17T11:41:11.116Z,342.20
2023-02-17T11:43:40.034Z,350.73
2023-02-17T11:46:25.768Z,341.17
2023-02-17T11:49:10.490Z,342.53
2023-02-17T11:51:52.648Z,331.67
2023-02-17T11:54:29.124Z,332.87
2023-02-17T11:57:19.887Z,329.33
2023-02-17T12:00:05.590Z,332.17
2023-02-17T12:02:52.789Z,312.87
2023-02-17T12:05:27.195Z,309.13
2023-02-17T12:08:07.979Z,290.80
2023-02-17T12:10:46.620Z,279.70
2023-02-17T12:13:28.912Z,267.40
2023-02-17T12:16:11.452Z,232.73
2023-02-17T12:18:54.795Z,209.27
2023-02-17T12:21:37.089Z,205.70
2023-02-17T12:24:23.307Z,211.97
2023-02-17T12:26:58.892Z,208.37
2023-02-17T12:29:41.348Z,187.63
2023-02-17T12:32:23.896Z,192.40
2023-02-17T12:34:59.226Z,179.67
2023-02-17T12:37:32.047Z,177.87
2023-02-17T12:40:08.463Z,195.50
2023-02-17T12:42:41.324Z,202.73
2023-02-17T12:45:17.990Z,218.07
2023-02-17T12:47:51.885Z,204.13
2023-02-17T12:50:27.176Z,228.63
2023-02-17T12:52:59.569Z,220.83
2023-02-17T12:55:36.626Z,199.97
2023-02-17T12:58:08.976Z,212.40
2023-02-17T13:00:40.324Z,223.40
2023-02-17T13:03:09.190Z,208.50
2023-02-17T13:05:43.126Z,162.57
2023-02-17T13:08:17.213Z,148.43
2023-02-17T13:10:46.261Z,138.67
2023-02-17T13:13:26.485Z,135.70
2023-02-17T13:16:04.232Z,128.30
2023-02-17T13:18:33.885Z,129.57
2023-02-17T13:21:02.758Z,135.43
2023-02-17T13:23:39.967Z,129.83
2023-02-17T13:26:36.747Z,131.90
2023-02-17T13:29:32.751Z,121.10
2023-02-17T13:32:02.914Z,104.53
2023-02-17T13:34:34.670Z,104.37
2023-02-17T13:37:05.563Z,93.73
2023-02-17T13:39:38.650Z,88.60
2023-02-17T13:42:38.188Z,95.83
2023-02-17T13:45:21.947Z,92.80
2023-02-17T13:47:52.181Z,94.93
2023-02-17T13:50:29.318Z,91.90
2023-02-17T13:52:57.707Z,87.83
2023-02-17T13:55:25.344Z,87.03
2023-02-17T13:57:55.907Z,83.20
2023-02-17T14:00:26.263Z,82.67
2023-02-17T14:02:55.734Z,79.97
2023-02-17T14:05:28.349Z,71.57
2023-02-17T14:08:01.265Z,70.47
2023-02-17T14:10:29.145Z,69.20
2023-02-17T14:12:58.675Z,70.20
2023-02-17T14:15:28.061Z,67.10
2023-02-17T14:17:56.487Z,67.90
2023-02-17T14:20:33.111Z,62.30
2023-02-17T14:23:04.544Z,63.23
2023-02-17T14:25:34.715Z,60.20
2023-02-17T14:28:04.711Z,60.90
2023-02-17T14:30:35.369Z,61.13
2023-02-17T14:33:08.707Z,64.43
2023-02-17T14:35:39.163Z,62.90
2023-02-17T14:38:20.697Z,58.27
2023-02-17T14:40:50.171Z,60.03
2023-02-17T14:43:19.183Z,63.07
2023-02-17T14:45:46.826Z,62.67
2023-02-17T14:48:14.557Z,59.40
2023-02-17T14:50:44.197Z,58.00
2023-02-17T14:53:15.066Z,59.57
2023-02-17T14:55:47.793Z,58.37
2023-02-17T14:58:21.476Z,56.77
2023-02-17T15:00:50.151Z,57.17
2023-02-17T15:03:17.946Z,58.90
2023-02-17T15:05:46.242Z,63.53
2023-02-17T15:08:17.029Z,57.00
2023-02-17T15:10:45.284Z,58.57
2023-02-17T15:13:15.854Z,57.10
2023-02-17T15:15:47.458Z,57.27
2023-02-17T15:18:17.572Z,57.07
2023-02-17T15:20:46.987Z,60.73
2023-02-17T15:23:16.538Z,56.40
2023-02-17T15:25:45.156Z,57.10
2023-02-17T15:28:13.842Z,59.33
2023-02-17T15:30:41.619Z,58.40
2023-02-17T15:33:13.461Z,58.00
2023-02-17T15:35:41.735Z,57.13
2023-02-17T15:38:12.666Z,57.70
2023-02-17T15:40:41.690Z,59.73
2023-02-17T15:43:14.286Z,59.47
2023-02-17T15:45:41.981Z,56.27
2023-02-17T15:48:18.600Z,58.70
2023-02-17T15:50:46.142Z,56.60
2023-02-17T15:53:13.759Z,56.07
2023-02-17T15:55:41.847Z,56.27
2023-02-17T15:58:16.537Z,59.47
2023-02-17T16:00:46.606Z,57.57
2023-02-17T16:03:16.475Z,56.53
2023-02-17T16:05:44.178Z,55.33
2023-02-17T16:08:11.785Z,54.90
2023-02-17T16:10:42.312Z,55.97
2023-02-17T16:13:14.285Z,54.70
2023-02-17T16:15:42.702Z,54.70
2023-02-17T16:18:17.371Z,57.27
2023-02-17T16:20:45.013Z,52.73
2023-02-17T16:23:12.658Z,56.13
2023-02-17T16:25:43.071Z,53.60
2023-02-17T16:28:15.708Z,54.20
2023-02-17T16:30:44.414Z,53.83
2023-02-17T16:33:12.140Z,54.87
2023-02-17T16:35:42.458Z,55.33
2023-02-17T16:38:15.383Z,55.00
2023-02-17T16:40:47.317Z,61.07
2023-02-17T16:43:16.153Z,63.67
2023-02-17T16:45:52.285Z,56.27
2023-02-17T16:48:24.172Z,56.50
2023-02-17T16:50:53.278Z,55.73
2023-02-17T16:53:21.473Z,54.87
2023-02-17T16:55:49.392Z,56.63
2023-02-17T16:58:19.734Z,55.37
2023-02-17T17:00:49.146Z,57.27
2023-02-17T17:03:16.857Z,55.20
2023-02-17T17:05:44.831Z,58.10
2023-02-17T17:08:16.427Z,58.53
2023-02-17T17:10:45.862Z,56.67
2023-02-17T17:13:14.447Z,57.03
2023-02-17T17:15:43.932Z,57.77
2023-02-17T17:18:19.859Z,58.10
2023-02-17T17:20:48.114Z,53.60
2023-02-17T17:23:18.674Z,55.37
2023-02-17T17:25:48.388Z,51.00
2023-02-17T17:28:18.627Z,52.30
2023-02-17T17:30:47.283Z,50.57
2023-02-17T17:33:15.118Z,53.17
2023-02-17T17:35:43.209Z,52.83
2023-02-17T17:38:14.018Z,49.93
2023-02-17T17:40:49.113Z,50.50
2023-02-17T17:43:16.994Z,47.90
2023-02-17T17:45:44.632Z,48.93
2023-02-17T17:48:14.145Z,48.97
2023-02-17T17:50:43.117Z,49.00
2023-02-17T17:53:11.155Z,49.47
2023-02-17T17:55:39.183Z,49.37
2023-02-17T17:58:08.170Z,50.60
2023-02-17T18:00:35.858Z,52.13
2023-02-17T18:03:03.868Z,50.83
2023-02-17T18:05:31.660Z,50.10
2023-02-17T18:07:59.370Z,51.53
2023-02-17T18:10:27.027Z,50.93
2023-02-17T18:12:54.763Z,52.47
2023-02-17T18:15:23.806Z,50.40
2023-02-17T18:17:52.505Z,50.67
2023-02-17T18:20:20.397Z,51.23
2023-02-17T18:22:48.016Z,53.27
2023-02-17T18:25:15.635Z,52.63
2023-02-17T18:27:46.095Z,53.67
2023-02-17T18:30:16.364Z,56.87
2023-02-17T18:32:45.954Z,55.70
2023-02-17T18:35:14.567Z,56.27
2023-02-17T18:37:42.534Z,59.97
2023-02-17T18:40:12.982Z,62.00
2023-02-17T18:42:41.542Z,67.97
2023-02-17T18:45:10.476Z,65.30
2023-02-17T18:47:38.562Z,60.27
2023-02-17T18:50:09.438Z,60.40
2023-02-17T18:52:37.575Z,58.40
2023-02-17T18:55:06.055Z,59.73
2023-02-17T18:57:34.763Z,54.80
2023-02-17T19:00:03.520Z,54.33
2023-02-17T19:02:31.220Z,54.70
2023-02-17T19:04:58.799Z,52.70
2023-02-17T19:07:27.870Z,53.27
2023-02-17T19:09:55.494Z,56.37
2023-02-17T19:12:23.245Z,55.93
2023-02-17T19:14:55.530Z,52.60
2023-02-17T19:17:24.480Z,57.13
2023-02-17T19:19:52.602Z,56.10
2023-02-17T19:22:20.965Z,59.03
2023-02-17T19:24:55.270Z,63.00
2023-02-17T19:27:22.994Z,60.80
2023-02-17T19:29:50.616Z,57.23
2023-02-17T19:32:18.297Z,52.70
2023-02-17T19:34:45.974Z,53.20
2023-02-17T19:37:13.651Z,53.07
2023-02-17T19:39:41.282Z,54.00
2023-02-17T19:42:10.206Z,54.10
2023-02-17T19:44:37.806Z,52.00
2023-02-17T19:47:05.417Z,52.27
2023-02-17T19:49:34.440Z,60.10
2023-02-17T19:52:02.031Z,52.17
2023-02-17T19:54:29.677Z,53.10
2023-02-17T19:56:57.244Z,51.90
2023-02-17T19:59:26.370Z,51.03
2023-02-17T20:01:53.966Z,51.43
2023-02-17T20:04:21.552Z,51.53
2023-02-17T20:06:49.731Z,54.10
2023-02-17T20:09:19.548Z,50.57
2023-02-17T20:11:49.631Z,49.23
2023-02-17T20:14:17.254Z,50.67
2023-02-17T20:16:48.387Z,52.03
2023-02-17T20:19:16.790Z,51.00
2023-02-17T20:21:45.804Z,53.07
2023-02-17T20:24:14.238Z,51.33
2023-02-17T20:26:44.257Z,52.90
2023-02-17T20:29:12.953Z,52.83
2023-02-17T20:31:42.057Z,53.40
2023-02-17T20:34:24.848Z,52.63
2023-02-17T20:36:52.486Z,53.77
2023-02-17T20:39:20.774Z,51.37
2023-02-17T20:41:48.775Z,53.63
2023-02-17T20:44:17.611Z,51.40
2023-02-17T20:46:45.892Z,55.10
2023-02-17T20:49:15.950Z,54.00
2023-02-17T20:51:43.655Z,52.67
2023-02-17T20:54:11.298Z,53.00
2023-02-17T20:56:41.291Z,49.27
2023-02-17T20:59:09.900Z,51.57
2023-02-17T21:01:37.744Z,51.30
2023-02-17T21:04:05.529Z,53.93
2023-02-17T21:06:38.086Z,50.83
2023-02-17T21:09:08.904Z,52.77
2023-02-17T21:11:36.606Z,53.83
2023-02-17T21:14:04.279Z,50.90
2023-02-17T21:16:32.511Z,50.93
2023-02-17T21:19:01.718Z,49.53
2023-02-17T21:21:30.587Z,54.40
2023-02-17T21:24:00.353Z,49.10
2023-02-17T21:26:28.229Z,48.00
2023-02-17T21:28:56.082Z,49.83
2023-02-17T21:31:24.001Z,51.07
2023-02-17T21:33:51.660Z,51.97
2023-02-17T21:36:19.798Z,51.80
2023-02-17T21:38:48.565Z,57.43
2023-02-17T21:41:19.778Z,53.13
2023-02-17T21:44:05.220Z,51.70
2023-02-17T21:46:33.874Z,51.03
2023-02-17T21:49:02.567Z,51.10
2023-02-17T21:51:30.707Z,51.67
2023-02-17T21:53:59.207Z,50.00
2023-02-17T21:56:28.349Z,52.97
2023-02-17T21:58:56.546Z,52.57
2023-02-17T22:01:26.888Z,50.37
2023-02-17T22:03:55.336Z,50.07
2023-02-17T22:06:25.227Z,50.07
2023-02-17T22:08:53.451Z,52.37
2023-02-17T22:11:23.212Z,51.80
2023-02-17T22:13:55.082Z,50.77
2023-02-17T22:16:22.808Z,53.07
2023-02-17T22:18:50.687Z,51.97
2023-02-17T22:21:18.681Z,51.23
2023-02-17T22:23:46.570Z,50.80
2023-02-17T22:26:16.282Z,50.67
2023-02-17T22:28:44.082Z,49.73
2023-02-17T22:31:15.862Z,48.90
2023-02-17T22:33:44.410Z,51.90
2023-02-17T22:36:14.098Z,50.43
2023-02-17T22:38:42.121Z,51.07
2023-02-17T22:41:12.009Z,53.87
2023-02-17T22:43:41.153Z,51.50
2023-02-17T22:46:10.758Z,51.83
2023-02-17T22:48:40.122Z,51.67
2023-02-17T22:51:09.037Z,54.10
2023-02-17T22:53:37.917Z,54.93
2023-02-17T22:56:06.982Z,54.87
2023-02-17T22:58:36.238Z,50.77
2023-02-17T23:01:06.056Z,51.03
2023-02-17T23:03:34.228Z,51.73
2023-02-17T23:06:05.264Z,49.03
2023-02-17T23:08:33.103Z,53.80
2023-02-17T23:11:04.350Z,50.17
2023-02-17T23:13:32.029Z,52.17
2023-02-17T23:15:59.694Z,49.97
2023-02-17T23:18:29.408Z,51.43
2023-02-17T23:20:57.137Z,52.57
2023-02-17T23:23:26.333Z,50.43
2023-02-17T23:25:56.433Z,51.10
2023-02-17T23:28:26.484Z,53.43
2023-02-17T23:30:54.492Z,54.00
2023-02-17T23:33:24.124Z,54.40
2023-02-17T23:35:51.737Z,54.77
2023-02-17T23:38:21.363Z,54.53
2023-02-17T23:40:51.727Z,54.30
2023-02-17T23:43:20.285Z,53.87
2023-02-17T23:45:47.885Z,52.57
2023-02-17T23:48:16.141Z,53.40
2023-02-17T23:50:43.803Z,52.13
2023-02-17T23:53:11.520Z,53.37
2023-02-17T23:55:39.084Z,54.87
2023-02-17T23:58:08.047Z,54.07
